Time;durP1;ratioP1;P1;durP2;ratioP2;P2;SDS_P1;SDS_P2;PMS_P1;PMS_P2;Temp;Humidity;BMP_temperature;BMP_pressure;BME280_temperature;BME280_humidity;BME280_pressure;Samples;Min_cycle;Max_cycle;Signal;HPM_P1;HPM_P2
2022/08/19 00:01:13;;;;;;;;;;;;;;;20.65;69.60;100307.88;5050343;28;19962;-74
2022/08/19 00:04:17;;;;;;;;;;;;;;;20.77;69.16;100312.97;5049904;28;20019;-74
2022/08/19 00:07:21;;;;;;;;;;;;;;;20.74;69.57;100314.13;5050261;28;20019;-74
2022/08/19 00:10:24;;;;;;;;;;;;;;;20.65;70.22;100305.22;5050710;28;19919;-73
2022/08/19 00:13:28;;;;;;;;;;;;;;;20.82;69.76;100316.00;5049773;28;19970;-73
2022/08/19 00:16:32;;;;;;;;;;;;;;;20.78;69.80;100312.00;5050068;28;19929;-74
2022/08/19 00:19:36;;;;;;;;;;;;;;;20.79;69.91;100308.34;5049870;28;19919;-73
2022/08/19 00:22:40;;;;;;;;;;;;;;;20.69;69.90;100308.41;5050038;28;20062;-73
2022/08/19 00:25:44;;;;;;;;;;;;;;;20.80;69.31;100307.34;5048953;28;20004;-73
2022/08/19 00:28:47;;;;;;;;;;;;;;;20.75;69.19;100313.13;5030397;28;20010;-73
2022/08/19 00:31:54;;;;;;;;;;;;;;;20.75;68.26;100313.13;5030289;28;19982;-73
2022/08/19 00:34:57;;;;;;;;;;;;;;;20.69;69.27;100312.91;5029846;28;19975;-73
2022/08/19 00:38:01;;;;;;;;;;;;;;;20.62;69.15;100308.19;5029313;28;20438;-73
2022/08/19 00:41:05;;;;;;;;;;;;;;;20.52;70.67;100307.41;5033287;28;19967;-73
2022/08/19 00:44:19;;;;;;;;;;;;;;;20.55;71.32;100312.44;5048265;28;19934;-73
2022/08/19 00:47:22;;;;;;;;;;;;;;;20.64;71.27;100311.53;5048014;28;19971;-73
2022/08/19 00:50:25;;;;;;;;;;;;;;;20.73;71.08;100315.09;5048303;28;19920;-74
2022/08/19 00:53:30;;;;;;;;;;;;;;;20.72;70.95;100307.28;5047887;28;19920;-73
2022/08/19 00:56:35;;;;;;;;;;;;;;;20.76;70.52;100301.50;5048696;28;19958;-73
2022/08/19 00:59:40;;;;;;;;;;;;;;;20.66;71.13;100300.75;5049936;28;19919;-73
2022/08/19 01:02:44;;;;;;;;;;;;;;;20.60;71.09;100298.69;5049870;28;19955;-74
2022/08/19 01:05:51;;;;;;;;;;;;;;;20.61;70.85;100295.91;5047900;28;19931;-73
2022/08/19 01:08:58;;;;;;;;;;;;;;;20.66;70.58;100303.41;5049360;28;19932;-73
2022/08/19 01:12:02;;;;;;;;;;;;;;;20.64;70.53;100300.03;5028637;28;19940;-73
2022/08/19 01:15:06;;;;;;;;;;;;;;;20.57;70.64;100304.28;5029322;28;19920;-74
2022/08/19 01:18:13;;;;;;;;;;;;;;;20.50;70.62;100300.53;5039901;28;20012;-73
2022/08/19 01:21:32;;;;;;;;;;;;;;;20.42;70.95;100295.97;5029491;28;19936;-74
2022/08/19 01:24:35;;;;;;;;;;;;;;;20.40;70.78;100292.63;5038841;28;20314;-73
2022/08/19 01:27:43;;;;;;;;;;;;;;;20.29;71.26;100284.88;5048685;28;20009;-73
2022/08/19 01:30:47;;;;;;;;;;;;;;;20.38;70.83;100279.50;5048913;28;19920;-73
2022/08/19 01:33:51;;;;;;;;;;;;;;;20.40;70.56;100274.06;5066771;28;19924;-73
2022/08/19 01:36:55;;;;;;;;;;;;;;;20.40;68.77;100266.09;5028800;28;19920;-73
2022/08/19 01:39:58;;;;;;;;;;;;;;;20.30;69.98;100263.50;5048237;28;20315;-74
2022/08/19 01:43:02;;;;;;;;;;;;;;;20.24;70.61;100265.91;5048937;28;19919;-74
2022/08/19 01:46:06;;;;;;;;;;;;;;;20.10;70.93;100265.44;5036129;28;19916;-74
2022/08/19 01:49:09;;;;;;;;;;;;;;;20.13;70.93;100269.59;5035913;28;19920;-74
2022/08/19 01:52:13;;;;;;;;;;;;;;;20.09;70.93;100262.91;5048095;28;19919;-74
2022/08/19 01:55:18;;;;;;;;;;;;;;;20.01;71.26;100261.00;5048987;28;19920;-74
2022/08/19 01:58:24;;;;;;;;;;;;;;;20.07;71.52;100251.59;5049245;28;19996;-74
2022/08/19 02:01:32;;;;;;;;;;;;;;;19.84;72.11;100248.50;5049139;28;20557;-74
2022/08/19 02:04:37;;;;;;;;;;;;;;;19.86;71.97;100265.13;5049101;28;20014;-74
2022/08/19 02:07:41;;;;;;;;;;;;;;;19.90;72.07;100259.34;5047363;28;19946;-74
2022/08/19 02:10:44;;;;;;;;;;;;;;;19.84;72.07;100275.03;5048667;28;20298;-74
2022/08/19 02:13:50;;;;;;;;;;;;;;;19.80;72.38;100269.19;5048552;28;19962;-74
2022/08/19 02:16:56;;;;;;;;;;;;;;;19.84;72.08;100269.72;5048333;28;19974;-74
2022/08/19 02:20:00;;;;;;;;;;;;;;;19.62;73.01;100279.72;5051105;28;19965;-74
2022/08/19 02:23:06;;;;;;;;;;;;;;;19.59;73.32;100287.97;5032522;28;19920;-74
2022/08/19 02:26:12;;;;;;;;;;;;;;;19.61;73.10;100288.63;5032478;28;19931;-74
2022/08/19 02:29:17;;;;;;;;;;;;;;;19.66;72.78;100282.94;5031673;28;20630;-74
2022/08/19 02:32:21;;;;;;;;;;;;;;;19.75;72.29;100284.72;5031913;28;19992;-74
2022/08/19 02:35:26;;;;;;;;;;;;;;;19.62;72.82;100292.97;5036002;28;19927;-74
2022/08/19 02:38:29;;;;;;;;;;;;;;;19.70;71.54;100285.16;5051220;28;20045;-74
2022/08/19 02:41:35;;;;;;;;;;;;;;;19.63;71.58;100281.38;5051673;28;20343;-74
2022/08/19 02:44:39;;;;;;;;;;;;;;;19.52;72.09;100292.13;5051707;28;19919;-74
2022/08/19 02:47:48;;;;;;;;;;;;;;;19.48;72.77;100283.63;5051861;28;19924;-73
2022/08/19 02:50:54;;;;;;;;;;;;;;;19.50;72.60;100296.78;5050705;28;19924;-73
2022/08/19 02:53:59;;;;;;;;;;;;;;;19.57;72.77;100299.69;5051767;28;19918;-73
2022/08/19 02:57:06;;;;;;;;;;;;;;;19.35;73.48;100298.19;5051769;28;19931;-73
2022/08/19 03:00:12;;;;;;;;;;;;;;;19.38;73.51;100301.38;5051195;28;19919;-73
2022/08/19 03:03:16;;;;;;;;;;;;;;;19.39;73.73;100302.22;5051374;28;19920;-73
2022/08/19 03:06:20;;;;;;;;;;;;;;;19.46;72.87;100303.31;5050593;28;19923;-73
2022/08/19 03:09:23;;;;;;;;;;;;;;;19.28;72.79;100306.72;5049938;28;19924;-73
2022/08/19 03:12:35;;;;;;;;;;;;;;;19.50;72.11;100310.84;5049003;28;19912;-73
2022/08/19 03:15:48;;;;;;;;;;;;;;;19.46;72.20;100319.22;5050580;28;19920;-73
2022/08/19 03:18:53;;;;;;;;;;;;;;;19.42;72.44;100317.84;5049730;28;19920;-73
2022/08/19 03:21:56;;;;;;;;;;;;;;;19.26;73.34;100319.25;5050530;28;19958;-73
2022/08/19 03:25:02;;;;;;;;;;;;;;;19.16;73.36;100315.78;5050909;28;19919;-73
2022/08/19 03:28:07;;;;;;;;;;;;;;;18.93;74.79;100327.66;5051065;28;19923;-72
2022/08/19 03:31:12;;;;;;;;;;;;;;;19.09;74.14;100321.78;5049849;28;20006;-73
2022/08/19 03:34:20;;;;;;;;;;;;;;;19.10;74.15;100323.47;5050558;28;19940;-73
2022/08/19 03:37:25;;;;;;;;;;;;;;;19.02;74.78;100317.06;5050471;28;19922;-73
2022/08/19 03:40:30;;;;;;;;;;;;;;;19.12;74.17;100322.34;5049718;28;19955;-72
2022/08/19 03:43:36;;;;;;;;;;;;;;;19.04;74.67;100315.09;5049992;28;19998;-74
2022/08/19 03:46:40;;;;;;;;;;;;;;;19.08;74.50;100315.66;5020152;28;20014;-73
2022/08/19 03:49:43;;;;;;;;;;;;;;;19.07;74.23;100324.56;5049834;28;19919;-73
2022/08/19 03:52:50;;;;;;;;;;;;;;;18.98;74.19;100320.09;5050772;28;20559;-73
2022/08/19 03:55:53;;;;;;;;;;;;;;;18.88;75.01;100314.81;5050759;28;19962;-73
2022/08/19 03:59:05;;;;;;;;;;;;;;;18.88;75.14;100317.44;5051247;28;19912;-73
2022/08/19 04:02:11;;;;;;;;;;;;;;;18.97;74.96;100323.75;5050054;28;19920;-73
2022/08/19 04:05:14;;;;;;;;;;;;;;;18.86;75.32;100331.81;5051007;28;19938;-73
2022/08/19 04:08:19;;;;;;;;;;;;;;;18.95;74.72;100323.03;5049717;28;19975;-73
2022/08/19 04:11:27;;;;;;;;;;;;;;;18.85;75.25;100327.50;5049823;28;20042;-73
2022/08/19 04:14:30;;;;;;;;;;;;;;;18.80;74.98;100336.69;5050035;28;20627;-73
2022/08/19 04:17:33;;;;;;;;;;;;;;;18.79;75.02;100347.41;5049842;28;19927;-73
2022/08/19 04:20:41;;;;;;;;;;;;;;;18.81;74.89;100348.97;5050125;28;20267;-73
2022/08/19 04:23:45;;;;;;;;;;;;;;;18.70;75.37;100349.06;5049816;28;19967;-73
2022/08/19 04:26:51;;;;;;;;;;;;;;;18.65;75.62;100348.63;5037320;28;20004;-73
2022/08/19 04:29:54;;;;;;;;;;;;;;;18.62;75.94;100359.50;5051723;28;19920;-73
2022/08/19 04:32:58;;;;;;;;;;;;;;;18.52;76.45;100363.94;5049518;28;20537;-73
2022/08/19 04:36:03;;;;;;;;;;;;;;;18.74;75.30;100358.44;5049770;28;19966;-73
2022/08/19 04:39:16;;;;;;;;;;;;;;;18.78;75.08;100362.47;5049773;28;19947;-74
2022/08/19 04:42:38;;;;;;;;;;;;;;;18.75;75.31;100352.16;5049510;28;19947;-73
2022/08/19 04:45:47;;;;;;;;;;;;;;;18.72;75.50;100346.25;5049119;28;19939;-73
2022/08/19 04:48:59;;;;;;;;;;;;;;;18.69;75.72;100350.03;5049494;28;19939;-73
2022/08/19 04:52:03;;;;;;;;;;;;;;;18.84;74.57;100355.81;5050094;28;19923;-73
2022/08/19 04:55:10;;;;;;;;;;;;;;;18.75;75.39;100352.16;5049982;28;19920;-73
2022/08/19 04:58:13;;;;;;;;;;;;;;;18.69;75.68;100351.84;5048896;28;19920;-73
2022/08/19 05:01:28;;;;;;;;;;;;;;;18.62;76.01;100362.13;5049207;28;20405;-73
2022/08/19 05:04:32;;;;;;;;;;;;;;;18.68;75.83;100360.75;5049191;28;20393;-74
2022/08/19 05:07:35;;;;;;;;;;;;;;;18.64;75.80;100349.59;5048757;28;19939;-73
2022/08/19 05:10:39;;;;;;;;;;;;;;;18.65;75.91;100350.44;5048761;28;19928;-73
2022/08/19 05:13:43;;;;;;;;;;;;;;;18.42;77.18;100349.84;5048004;28;19919;-73
2022/08/19 05:16:51;;;;;;;;;;;;;;;18.28;77.58;100361.59;5048585;28;19919;-73
2022/08/19 05:23:18;;;;;;;;;;;;;;;18.10;78.71;100364.06;5049915;28;20632;-73
2022/08/19 05:26:21;;;;;;;;;;;;;;;18.25;78.35;100370.69;5048485;28;19935;-73
2022/08/19 05:29:26;;;;;;;;;;;;;;;18.22;78.55;100365.66;5028674;28;19920;-73
2022/08/19 05:32:30;;;;;;;;;;;;;;;18.19;78.52;100365.91;5028039;28;20043;-73
2022/08/19 05:35:33;;;;;;;;;;;;;;;18.05;79.11;100369.72;5028141;28;20296;-73
2022/08/19 05:38:36;;;;;;;;;;;;;;;18.11;78.93;100366.56;5029132;28;20017;-73
2022/08/19 05:41:46;;;;;;;;;;;;;;;18.00;79.75;100371.13;5034770;28;19959;-74
2022/08/19 05:44:50;;;;;;;;;;;;;;;18.19;78.75;100376.50;5048451;28;19939;-74
2022/08/19 05:47:54;;;;;;;;;;;;;;;18.05;79.62;100379.47;5047570;28;20005;-74
2022/08/19 05:50:59;;;;;;;;;;;;;;;17.99;79.61;100380.00;5047907;28;19988;-74
2022/08/19 05:54:07;;;;;;;;;;;;;;;18.03;79.88;100381.44;5049472;28;19946;-73
2022/08/19 05:57:11;;;;;;;;;;;;;;;18.12;79.50;100375.34;5051936;28;19920;-74
2022/08/19 06:00:17;;;;;;;;;;;;;;;18.23;79.04;100363.84;5053290;28;20329;-75
2022/08/19 06:03:22;;;;;;;;;;;;;;;18.04;79.19;100368.06;5053189;28;19918;-74
2022/08/19 06:06:29;;;;;;;;;;;;;;;18.11;79.27;100371.03;5052473;28;19924;-74
2022/08/19 06:09:32;;;;;;;;;;;;;;;18.21;78.56;100379.84;5053407;28;20019;-74
2022/08/19 06:12:36;;;;;;;;;;;;;;;18.38;77.97;100377.53;5032928;28;19919;-74
2022/08/19 06:15:41;;;;;;;;;;;;;;;18.31;78.33;100375.44;5032008;28;19947;-74
2022/08/19 06:18:45;;;;;;;;;;;;;;;18.48;77.74;100384.53;5032403;28;19971;-74
2022/08/19 06:21:52;;;;;;;;;;;;;;;18.41;77.95;100382.56;5032543;28;19912;-74
2022/08/19 06:24:56;;;;;;;;;;;;;;;18.31;78.64;100396.63;5040551;28;20312;-74
2022/08/19 06:27:59;;;;;;;;;;;;;;;18.45;78.08;100405.16;5052187;28;19923;-74
2022/08/19 06:31:09;;;;;;;;;;;;;;;18.37;78.05;100405.81;5056019;28;19970;-73
2022/08/19 06:34:13;;;;;;;;;;;;;;;18.42;78.29;100402.78;5051796;28;19939;-73
2022/08/19 06:37:25;;;;;;;;;;;;;;;18.38;78.95;100409.28;5051471;28;20025;-73
2022/08/19 06:40:29;;;;;;;;;;;;;;;18.46;78.09;100426.19;5052071;28;19928;-74
2022/08/19 06:43:32;;;;;;;;;;;;;;;18.53;77.57;100427.31;5052277;28;19936;-73
2022/08/19 06:46:37;;;;;;;;;;;;;;;18.56;77.25;100439.47;5050594;28;20475;-73
2022/08/19 06:49:40;;;;;;;;;;;;;;;18.47;77.54;100430.50;5051739;28;19923;-74
2022/08/19 06:52:43;;;;;;;;;;;;;;;18.44;78.00;100437.88;5051299;28;19942;-74
2022/08/19 06:55:59;;;;;;;;;;;;;;;18.33;78.34;100439.66;5051315;28;19920;-75
2022/08/19 06:59:13;;;;;;;;;;;;;;;18.43;78.09;100445.00;5051478;28;19978;-73
2022/08/19 07:02:16;;;;;;;;;;;;;;;18.50;78.40;100442.66;5051648;28;19912;-74
2022/08/19 07:05:21;;;;;;;;;;;;;;;18.51;78.40;100445.19;5061835;28;19923;-75
2022/08/19 07:08:27;;;;;;;;;;;;;;;18.55;77.11;100446.56;5050438;28;19923;-75
2022/08/19 07:11:32;;;;;;;;;;;;;;;18.76;76.26;100449.22;5052225;28;20299;-75
2022/08/19 07:14:37;;;;;;;;;;;;;;;18.94;74.85;100444.06;5052424;28;19966;-75
2022/08/19 07:17:43;;;;;;;;;;;;;;;19.00;74.51;100440.06;5051371;28;20285;-75
2022/08/19 07:20:47;;;;;;;;;;;;;;;19.10;74.11;100448.84;5051731;28;20023;-75
2022/08/19 07:23:51;;;;;;;;;;;;;;;19.08;74.22;100453.47;5050821;28;19947;-75
2022/08/19 07:27:02;;;;;;;;;;;;;;;19.22;73.53;100455.72;5050342;28;19924;-75
2022/08/19 07:30:07;;;;;;;;;;;;;;;19.25;73.26;100452.78;5051110;28;20459;-75
2022/08/19 07:33:10;;;;;;;;;;;;;;;19.25;73.25;100455.44;5062841;28;20390;-75
2022/08/19 07:36:17;;;;;;;;;;;;;;;19.36;73.16;100457.09;5063144;28;20004;-75
2022/08/19 07:39:29;;;;;;;;;;;;;;;19.56;72.90;100457.97;5050372;28;19935;-75
2022/08/19 07:42:34;;;;;;;;;;;;;;;19.76;71.88;100453.53;5038698;28;20009;-75
2022/08/19 07:45:43;;;;;;;;;;;;;;;19.94;71.17;100456.28;5050153;28;19939;-75
2022/08/19 07:48:46;;;;;;;;;;;;;;;20.03;70.54;100447.47;5050508;28;19928;-75
2022/08/19 07:51:54;;;;;;;;;;;;;;;20.09;70.27;100459.31;5068367;28;19964;-76
2022/08/19 07:54:59;;;;;;;;;;;;;;;20.19;69.78;100445.03;5071477;28;19920;-76
2022/08/19 07:58:04;;;;;;;;;;;;;;;20.27;69.89;100454.13;5049447;28;20432;-76
2022/08/19 08:01:10;;;;;;;;;;;;;;;20.36;69.82;100461.22;5049848;28;19970;-76
2022/08/19 08:10:59;;;;;;;;;;;;;;;20.85;67.99;100445.94;5049860;28;20042;-75
2022/08/19 08:14:04;;;;;;;;;;;;;;;21.01;68.77;100438.13;5050033;28;19919;-75
2022/08/19 08:17:12;;;;;;;;;;;;;;;21.17;67.50;100429.50;5049386;28;20366;-75
2022/08/19 08:20:15;;;;;;;;;;;;;;;21.19;67.46;100437.31;5049157;28;19920;-76
2022/08/19 08:23:24;;;;;;;;;;;;;;;21.29;67.88;100436.25;5050110;28;20433;-76
2022/08/19 08:26:27;;;;;;;;;;;;;;;21.31;67.31;100428.13;5050306;28;20377;-75
2022/08/19 08:29:31;;;;;;;;;;;;;;;21.23;67.61;100428.06;5050700;28;19919;-75
2022/08/19 08:32:34;;;;;;;;;;;;;;;21.31;67.63;100431.63;5049681;28;19931;-74
2022/08/19 08:35:39;;;;;;;;;;;;;;;21.40;67.14;100427.22;5049646;28;20017;-72
2022/08/19 08:38:45;;;;;;;;;;;;;;;21.51;66.94;100429.69;5049435;28;20398;-75
2022/08/19 08:42:07;;;;;;;;;;;;;;;21.66;66.62;100426.44;5049506;28;19919;-75
2022/08/19 08:45:14;;;;;;;;;;;;;;;21.80;66.15;100434.72;5049322;28;19939;-76
2022/08/19 08:48:34;;;;;;;;;;;;;;;22.01;65.57;100429.03;5048870;28;19971;-75
2022/08/19 08:51:43;;;;;;;;;;;;;;;22.16;64.75;100429.34;5049685;28;19919;-74
2022/08/19 08:54:48;;;;;;;;;;;;;;;22.23;63.96;100432.19;5050327;28;19919;-74
2022/08/19 08:57:59;;;;;;;;;;;;;;;22.18;64.51;100418.53;5047959;28;19920;-75
2022/08/19 09:01:02;;;;;;;;;;;;;;;21.94;64.43;100421.84;5049710;28;19920;-74
2022/08/19 09:04:06;;;;;;;;;;;;;;;22.26;64.05;100423.88;5041310;28;19982;-74
2022/08/19 09:07:19;;;;;;;;;;;;;;;22.52;63.46;100422.00;5048493;28;19947;-75
2022/08/19 09:10:22;;;;;;;;;;;;;;;22.55;62.39;100418.19;5048367;28;19920;-75
2022/08/19 09:13:28;;;;;;;;;;;;;;;22.50;62.35;100429.34;5049378;28;19978;-74
2022/08/19 09:16:32;;;;;;;;;;;;;;;22.63;61.51;100433.41;5048499;28;19939;-74
2022/08/19 09:19:36;;;;;;;;;;;;;;;22.66;58.79;100417.91;5049583;28;20425;-75
2022/08/19 09:22:40;;;;;;;;;;;;;;;22.92;58.14;100411.66;5049072;28;19920;-75
2022/08/19 09:25:43;;;;;;;;;;;;;;;23.13;57.17;100416.56;5048504;28;19919;-75
2022/08/19 09:28:48;;;;;;;;;;;;;;;23.22;56.06;100410.25;5050205;28;20011;-75
2022/08/19 09:31:52;;;;;;;;;;;;;;;23.12;55.64;100407.72;5052079;28;20475;-74
2022/08/19 09:35:00;;;;;;;;;;;;;;;23.24;56.42;100412.75;5052246;28;19924;-75
2022/08/19 09:38:03;;;;;;;;;;;;;;;23.49;55.96;100409.09;5053505;28;19921;-75
2022/08/19 09:41:13;;;;;;;;;;;;;;;23.62;55.60;100403.25;5053533;28;19919;-75
2022/08/19 09:44:16;;;;;;;;;;;;;;;23.73;52.98;100404.78;5052800;28;19919;-74
2022/08/19 09:47:19;;;;;;;;;;;;;;;23.47;51.77;100403.09;5053278;28;20536;-75
2022/08/19 09:50:23;;;;;;;;;;;;;;;23.49;52.14;100397.59;5053220;28;19959;-75
2022/08/19 09:53:27;;;;;;;;;;;;;;;23.61;51.45;100398.91;5053558;28;20566;-76
2022/08/19 09:56:30;;;;;;;;;;;;;;;23.73;51.44;100392.25;5053515;28;19911;-76
2022/08/19 09:59:34;;;;;;;;;;;;;;;23.86;51.56;100395.22;5052091;28;20011;-76
2022/08/19 10:02:37;;;;;;;;;;;;;;;24.13;51.58;100395.84;5051820;28;19927;-76
2022/08/19 10:05:49;;;;;;;;;;;;;;;24.08;50.49;100392.84;5051959;28;20004;-76
2022/08/19 10:12:47;;;;;;;;;;;;;;;24.18;49.98;100388.16;5052007;28;19919;-76
2022/08/19 10:15:51;;;;;;;;;;;;;;;24.31;50.11;100385.78;5052344;28;19932;-76
2022/08/19 10:18:54;;;;;;;;;;;;;;;24.31;50.22;100393.81;5051994;28;20422;-76
2022/08/19 10:21:57;;;;;;;;;;;;;;;24.45;49.07;100378.06;5052881;28;20377;-76
2022/08/19 10:25:00;;;;;;;;;;;;;;;24.67;49.37;100373.78;5052715;28;20485;-76
2022/08/19 10:28:05;;;;;;;;;;;;;;;24.63;47.78;100364.44;5052578;28;19932;-76
2022/08/19 10:31:10;;;;;;;;;;;;;;;24.59;48.59;100369.31;5052335;28;20298;-76
2022/08/19 10:34:13;;;;;;;;;;;;;;;24.49;48.49;100368.69;5051515;28;20005;-76
2022/08/19 10:37:17;;;;;;;;;;;;;;;24.84;48.35;100359.31;5051895;28;19919;-75
2022/08/19 10:40:20;;;;;;;;;;;;;;;25.09;47.93;100359.97;5051648;28;20369;-75
2022/08/19 10:43:24;;;;;;;;;;;;;;;24.93;48.62;100360.09;5051627;28;19920;-75
2022/08/19 10:46:28;;;;;;;;;;;;;;;24.67;48.20;100363.94;5051915;28;19935;-76
2022/08/19 10:49:32;;;;;;;;;;;;;;;24.75;48.00;100353.16;5052182;28;19919;-75
2022/08/19 10:52:35;;;;;;;;;;;;;;;24.73;47.70;100349.00;5051717;28;19924;-76
2022/08/19 10:59:02;;;;;;;;;;;;;;;24.83;47.99;100349.63;5052527;28;20029;-75
2022/08/19 11:02:12;;;;;;;;;;;;;;;24.93;48.08;100349.41;5051595;28;19927;-75
2022/08/19 11:05:17;;;;;;;;;;;;;;;24.90;48.28;100347.06;5051405;28;20537;-75
2022/08/19 11:08:22;;;;;;;;;;;;;;;25.02;46.28;100345.66;5050987;28;20323;-75
2022/08/19 11:11:25;;;;;;;;;;;;;;;24.92;45.86;100332.53;5050099;28;19962;-75
2022/08/19 11:14:36;;;;;;;;;;;;;;;25.25;45.43;100332.28;5049747;28;20322;-75
2022/08/19 11:17:43;;;;;;;;;;;;;;;25.33;45.97;100328.69;5049657;28;20390;-74
2022/08/19 11:20:46;;;;;;;;;;;;;;;25.13;45.89;100339.91;5049939;28;19962;-75
2022/08/19 11:23:51;;;;;;;;;;;;;;;24.83;46.55;100338.94;5050241;28;20552;-75
2022/08/19 11:27:02;;;;;;;;;;;;;;;24.81;45.80;100336.41;5049469;28;19974;-75
2022/08/19 11:30:07;;;;;;;;;;;;;;;25.04;45.01;100331.06;5049918;28;19999;-75
2022/08/19 11:33:10;;;;;;;;;;;;;;;25.39;43.08;100318.09;5049709;28;19924;-75
2022/08/19 11:36:14;;;;;;;;;;;;;;;25.48;43.72;100326.88;5049684;28;20020;-75
2022/08/19 11:39:19;;;;;;;;;;;;;;;25.34;44.77;100322.34;5049058;28;19923;-75
2022/08/19 11:45:44;;;;;;;;;;;;;;;25.66;41.87;100324.72;5050999;28;19939;-75
2022/08/19 11:48:49;;;;;;;;;;;;;;;25.81;40.30;100331.94;5051212;28;19966;-74
2022/08/19 11:51:53;;;;;;;;;;;;;;;25.71;42.21;100322.28;5050368;28;19920;-74
2022/08/19 11:54:57;;;;;;;;;;;;;;;25.60;43.02;100321.94;5050255;28;19920;-74
2022/08/19 11:58:01;;;;;;;;;;;;;;;25.63;43.40;100319.72;5060626;28;20362;-75
2022/08/19 12:01:07;;;;;;;;;;;;;;;25.69;43.96;100335.06;5050862;28;20301;-74
2022/08/19 12:04:11;;;;;;;;;;;;;;;25.75;43.30;100334.31;5065936;28;20028;-75
2022/08/19 12:07:15;;;;;;;;;;;;;;;25.85;43.01;100322.53;5039352;28;19975;-74
2022/08/19 12:10:18;;;;;;;;;;;;;;;26.30;42.57;100326.00;5030909;28;19966;-75
2022/08/19 12:13:22;;;;;;;;;;;;;;;26.13;41.72;100310.16;5032407;28;19920;-75
2022/08/19 12:16:27;;;;;;;;;;;;;;;26.02;42.88;100302.56;5048534;28;19919;-74
2022/08/19 12:19:30;;;;;;;;;;;;;;;25.81;43.04;100310.50;5049506;28;19919;-74
2022/08/19 12:22:34;;;;;;;;;;;;;;;25.87;42.67;100304.41;5049544;28;19959;-75
2022/08/19 12:25:43;;;;;;;;;;;;;;;25.97;41.67;100311.19;5050380;28;20011;-75
2022/08/19 12:28:48;;;;;;;;;;;;;;;26.30;41.87;100304.56;5050424;28;20434;-74
2022/08/19 12:31:51;;;;;;;;;;;;;;;26.54;41.26;100303.41;5050715;28;19958;-75
2022/08/19 12:34:55;;;;;;;;;;;;;;;26.61;40.79;100286.41;5050523;28;19923;-75
2022/08/19 12:38:02;;;;;;;;;;;;;;;26.23;40.42;100280.38;5049090;28;19928;-75
2022/08/19 12:41:08;;;;;;;;;;;;;;;26.49;39.61;100287.09;5050089;28;19919;-75
2022/08/19 12:44:12;;;;;;;;;;;;;;;26.78;39.14;100286.16;5049617;28;19962;-75
2022/08/19 12:47:18;;;;;;;;;;;;;;;26.91;39.85;100278.22;5049612;28;19939;-75
2022/08/19 12:50:22;;;;;;;;;;;;;;;27.04;38.49;100275.63;5049618;28;20119;-75
2022/08/19 12:53:25;;;;;;;;;;;;;;;26.74;38.62;100277.66;5050519;28;20267;-75
2022/08/19 12:56:29;;;;;;;;;;;;;;;27.12;39.02;100256.72;5050140;28;19939;-75
2022/08/19 12:59:33;;;;;;;;;;;;;;;27.41;37.67;100264.78;5050027;28;20455;-75
2022/08/19 13:02:38;;;;;;;;;;;;;;;27.93;37.01;100258.09;5049638;28;19962;-75
2022/08/19 13:05:42;;;;;;;;;;;;;;;28.12;36.35;100265.41;5048952;28;19935;-75
2022/08/19 13:08:49;;;;;;;;;;;;;;;28.58;36.80;100272.78;5049437;28;19924;-75
2022/08/19 13:11:53;;;;;;;;;;;;;;;29.72;34.04;100285.25;5049923;28;19939;-75
2022/08/19 13:15:00;;;;;;;;;;;;;;;31.65;31.02;100268.66;5049733;28;20029;-75
2022/08/19 13:18:03;;;;;;;;;;;;;;;36.82;23.77;100270.56;5050245;28;19920;-75
2022/08/19 13:21:12;;;;;;;;;;;;;;;39.59;20.04;100262.06;5049545;28;20338;-75
2022/08/19 13:24:17;;;;;;;;;;;;;;;32.47;27.51;100272.88;5050464;28;19966;-76
2022/08/19 13:27:20;;;;;;;;;;;;;;;33.63;26.63;100260.53;5049659;28;20020;-75
2022/08/19 13:33:45;;;;;;;;;;;;;;;30.59;30.63;100285.72;5049519;28;19966;-75
2022/08/19 13:36:48;;;;;;;;;;;;;;;33.66;26.56;100278.22;5049973;28;20436;-75
2022/08/19 13:39:54;;;;;;;;;;;;;;;37.30;23.26;100260.56;5048567;28;20004;-75
2022/08/19 13:43:01;;;;;;;;;;;;;;;37.54;21.86;100267.28;5049644;28;19920;-75
2022/08/19 13:46:09;;;;;;;;;;;;;;;36.99;22.05;100260.38;5048871;28;19963;-75
2022/08/19 13:49:12;;;;;;;;;;;;;;;31.39;28.79;100269.75;5047411;28;19943;-75
2022/08/19 13:52:15;;;;;;;;;;;;;;;32.10;27.68;100271.06;5048385;28;19965;-75
2022/08/19 13:55:19;;;;;;;;;;;;;;;36.57;22.72;100255.66;5049383;28;19978;-75
2022/08/19 13:58:22;;;;;;;;;;;;;;;36.48;21.93;100260.72;5048898;28;20357;-75
2022/08/19 14:01:26;;;;;;;;;;;;;;;35.66;23.11;100256.25;5048393;28;19963;-75
2022/08/19 14:04:30;;;;;;;;;;;;;;;37.02;20.40;100248.97;5057352;28;19919;-75
2022/08/19 14:07:37;;;;;;;;;;;;;;;37.63;22.55;100240.34;5049974;28;19924;-74
2022/08/19 14:10:44;;;;;;;;;;;;;;;39.78;22.73;100252.16;5049020;28;20370;-76
2022/08/19 14:13:47;;;;;;;;;;;;;;;39.85;18.92;100244.44;5049375;28;19966;-75
2022/08/19 14:16:51;;;;;;;;;;;;;;;35.60;22.55;100259.97;5052725;28;19919;-76
2022/08/19 14:20:00;;;;;;;;;;;;;;;35.82;22.53;100263.50;5053718;28;20464;-75
2022/08/19 14:23:05;;;;;;;;;;;;;;;33.73;25.45;100266.19;5053366;28;19962;-75
2022/08/19 14:26:11;;;;;;;;;;;;;;;34.81;23.93;100268.25;5037985;28;19920;-75
2022/08/19 14:29:14;;;;;;;;;;;;;;;35.67;24.00;100262.50;5053345;28;19923;-75
2022/08/19 14:32:17;;;;;;;;;;;;;;;34.08;24.71;100273.44;5050939;28;20330;-75
2022/08/19 14:35:21;;;;;;;;;;;;;;;31.34;29.33;100271.50;5039723;28;20282;-75
2022/08/19 14:38:25;;;;;;;;;;;;;;;30.51;29.22;100267.09;5052194;28;20017;-75
2022/08/19 14:41:30;;;;;;;;;;;;;;;32.88;26.74;100253.09;5052278;28;19939;-75
2022/08/19 14:44:34;;;;;;;;;;;;;;;32.61;27.99;100271.63;5053188;28;19920;-75
2022/08/19 14:47:38;;;;;;;;;;;;;;;31.33;29.53;100267.94;5052717;28;19924;-75
2022/08/19 14:50:41;;;;;;;;;;;;;;;30.89;29.34;100271.63;5052922;28;19923;-75
2022/08/19 14:53:44;;;;;;;;;;;;;;;30.04;31.35;100275.38;5039612;28;19920;-75
2022/08/19 14:56:51;;;;;;;;;;;;;;;30.37;30.76;100274.41;5052019;28;19919;-75
2022/08/19 14:59:54;;;;;;;;;;;;;;;29.37;33.50;100266.63;5038619;28;19919;-75
2022/08/19 15:02:58;;;;;;;;;;;;;;;29.62;31.82;100272.22;5051590;28;19919;-74
2022/08/19 15:06:04;;;;;;;;;;;;;;;29.29;32.33;100279.47;5052226;28;19920;-74
2022/08/19 15:09:08;;;;;;;;;;;;;;;29.55;33.61;100278.63;5052868;28;19978;-75
2022/08/19 15:12:14;;;;;;;;;;;;;;;29.54;33.95;100282.34;5039697;28;20435;-75
2022/08/19 15:15:22;;;;;;;;;;;;;;;29.66;31.89;100280.69;5051301;28;20512;-75
2022/08/19 15:18:26;;;;;;;;;;;;;;;29.85;31.80;100279.00;5051984;28;19958;-75
2022/08/19 15:21:29;;;;;;;;;;;;;;;30.42;30.07;100273.78;5051151;28;20447;-75
2022/08/19 15:24:35;;;;;;;;;;;;;;;30.11;29.64;100275.34;5050842;28;19919;-75
2022/08/19 15:27:41;;;;;;;;;;;;;;;29.52;32.24;100271.78;5051430;28;20019;-74
2022/08/19 15:30:52;;;;;;;;;;;;;;;29.43;32.94;100270.38;5050115;28;19923;-75
2022/08/19 15:33:59;;;;;;;;;;;;;;;29.70;31.17;100271.16;5064164;28;19924;-74
2022/08/19 15:37:04;;;;;;;;;;;;;;;29.38;33.43;100270.97;5050656;28;19920;-75
2022/08/19 15:40:08;;;;;;;;;;;;;;;29.19;33.58;100263.75;5050268;28;19937;-75
2022/08/19 15:43:11;;;;;;;;;;;;;;;29.23;33.59;100265.00;5043096;28;19966;-75
2022/08/19 15:46:18;;;;;;;;;;;;;;;29.48;31.00;100258.94;5045594;28;20124;-75
2022/08/19 15:49:23;;;;;;;;;;;;;;;29.65;30.92;100252.13;5016388;28;19924;-75
2022/08/19 15:52:26;;;;;;;;;;;;;;;29.40;33.17;100247.38;5028138;28;20298;-75
2022/08/19 15:55:33;;;;;;;;;;;;;;;29.47;32.60;100238.44;5036081;28;19939;-76
2022/08/19 16:08:48;;;;;;;;;;;;;;;29.10;31.64;100230.84;5067705;28;20401;-75
2022/08/19 16:11:55;;;;;;;;;;;;;;;29.53;32.70;100226.81;5058204;28;19924;-75
2022/08/19 16:14:58;;;;;;;;;;;;;;;29.23;31.55;100231.84;5047814;28;20678;-75
2022/08/19 16:18:05;;;;;;;;;;;;;;;28.92;31.87;100234.13;5048329;28;19923;-75
2022/08/19 16:21:09;;;;;;;;;;;;;;;28.91;34.30;100239.72;5048647;28;20000;-75
2022/08/19 16:24:14;;;;;;;;;;;;;;;28.47;32.79;100233.88;5047622;28;19923;-75